Time;durP1;ratioP1;P1;durP2;ratioP2;P2;SDS_P1;SDS_P2;PMS_P1;PMS_P2;Temp;Humidity;BMP_temperature;BMP_pressure;BME280_temperature;BME280_humidity;BME280_pressure;Samples;Min_cycle;Max_cycle;Signal;HPM_P1;HPM_P2
2024/01/27 05:29:46;;;;;;;12.65;4.63;;;1.90;99.90;;;;;;5881730;22;20470;-64
2024/01/27 05:32:13;;;;;;;10.23;4.10;;;1.80;99.90;;;;;;5023510;28;20510;-63
2024/01/27 05:34:40;;;;;;;11.23;4.20;;;1.80;99.90;;;;;;5025442;28;20415;-64
2024/01/27 05:37:07;;;;;;;10.20;4.60;;;1.80;99.90;;;;;;5025069;28;20515;-63
2024/01/27 05:39:34;;;;;;;8.13;4.32;;;1.70;99.90;;;;;;5021686;28;20514;-65
2024/01/27 05:42:00;;;;;;;9.57;4.30;;;1.70;99.90;;;;;;5014042;28;20479;-64
2024/01/27 05:44:26;;;;;;;9.63;4.22;;;1.70;99.90;;;;;;5023397;28;20458;-63
2024/01/27 05:46:54;;;;;;;9.88;4.32;;;1.70;99.90;;;;;;5011717;28;20913;-64
2024/01/27 05:49:21;;;;;;;10.27;4.30;;;1.70;99.90;;;;;;5011983;28;20439;-64
2024/01/27 05:51:48;;;;;;;9.65;4.40;;;1.70;99.90;;;;;;5016694;28;20413;-64
2024/01/27 05:54:16;;;;;;;10.02;4.30;;;1.60;99.90;;;;;;5009242;28;20421;-65
2024/01/27 05:56:43;;;;;;;12.17;4.10;;;1.60;99.90;;;;;;5018778;28;20628;-64
2024/01/27 05:59:10;;;;;;;8.80;4.35;;;1.60;99.90;;;;;;5007874;28;20460;-65
2024/01/27 06:01:37;;;;;;;10.63;4.60;;;1.60;99.90;;;;;;5009749;28;20439;-64
2024/01/27 06:04:05;;;;;;;10.05;4.10;;;1.60;99.90;;;;;;5011655;28;20417;-64
2024/01/27 06:06:32;;;;;;;9.73;3.83;;;1.60;99.90;;;;;;5024636;28;20419;-64
2024/01/27 06:08:58;;;;;;;11.93;5.30;;;1.60;99.90;;;;;;5011791;28;20432;-65
2024/01/27 06:11:25;;;;;;;9.25;3.97;;;1.60;99.90;;;;;;5012176;28;20412;-64
2024/01/27 06:13:52;;;;;;;13.00;4.57;;;1.60;99.90;;;;;;5017834;28;20428;-65
2024/01/27 06:16:19;;;;;;;9.55;3.80;;;1.60;99.90;;;;;;5014505;28;20432;-65
2024/01/27 06:18:46;;;;;;;10.23;3.63;;;1.60;99.90;;;;;;5020172;28;20418;-66
2024/01/27 06:21:14;;;;;;;8.13;4.38;;;1.50;99.90;;;;;;5013213;28;20787;-66
2024/01/27 06:23:41;;;;;;;9.50;4.60;;;1.50;99.90;;;;;;5007049;28;20408;-65
2024/01/27 06:26:09;;;;;;;11.10;4.70;;;1.40;99.90;;;;;;5012829;28;20408;-66
2024/01/27 06:28:36;;;;;;;8.23;3.97;;;1.50;99.90;;;;;;5015055;28;20431;-66
2024/01/27 06:31:04;;;;;;;11.13;4.45;;;1.50;99.90;;;;;;5009333;28;20669;-64
2024/01/27 06:33:30;;;;;;;9.57;4.78;;;1.50;99.90;;;;;;5014545;28;20417;-64
2024/01/27 06:35:57;;;;;;;7.38;3.63;;;1.50;99.90;;;;;;5023952;28;20413;-65
2024/01/27 06:38:26;;;;;;;8.40;4.60;;;1.50;99.90;;;;;;5035156;28;20419;-63
2024/01/27 06:40:52;;;;;;;8.75;4.30;;;1.40;99.90;;;;;;5023172;28;20510;-65
2024/01/27 06:43:19;;;;;;;7.93;4.65;;;1.40;99.90;;;;;;5025171;28;20474;-65
2024/01/27 06:45:46;;;;;;;8.63;4.40;;;1.40;99.90;;;;;;5015939;28;20520;-64
2024/01/27 06:48:13;;;;;;;8.07;4.03;;;1.40;99.90;;;;;;5020550;28;20445;-65
2024/01/27 06:50:39;;;;;;;10.02;4.13;;;1.30;99.90;;;;;;5010393;28;20897;-65
2024/01/27 06:53:06;;;;;;;10.68;4.53;;;1.30;99.90;;;;;;5007980;28;20765;-63
2024/01/27 06:55:34;;;;;;;11.00;4.32;;;1.30;99.90;;;;;;5006826;28;20421;-65
2024/01/27 06:58:01;;;;;;;8.93;4.05;;;1.30;99.90;;;;;;5006363;28;20884;-65
2024/01/27 07:00:28;;;;;;;9.40;3.97;;;1.30;99.90;;;;;;5014451;28;20423;-66
2024/01/27 07:02:55;;;;;;;7.70;4.40;;;1.30;99.90;;;;;;5011898;28;20730;-65
2024/01/27 07:05:22;;;;;;;12.00;4.30;;;1.30;99.90;;;;;;5005262;28;20424;-65
2024/01/27 07:07:49;;;;;;;8.65;3.67;;;1.30;99.90;;;;;;5012391;28;20479;-66
2024/01/27 07:10:16;;;;;;;8.57;3.80;;;1.30;99.90;;;;;;5014006;28;20496;-66
2024/01/27 07:12:44;;;;;;;8.15;4.38;;;1.20;99.90;;;;;;5012129;28;20732;-66
2024/01/27 07:15:11;;;;;;;8.15;4.60;;;1.20;99.90;;;;;;5006284;28;20425;-66
2024/01/27 07:17:38;;;;;;;11.40;5.30;;;1.20;99.90;;;;;;5006341;28;20507;-66
2024/01/27 07:20:07;;;;;;;8.70;4.53;;;1.20;99.90;;;;;;5007833;28;20417;-66
2024/01/27 07:22:33;;;;;;;8.50;3.95;;;1.20;99.90;;;;;;5012789;28;20421;-67
2024/01/27 07:25:00;;;;;;;11.38;4.65;;;1.20;99.90;;;;;;5014232;28;20483;-66
2024/01/27 07:27:27;;;;;;;10.25;3.88;;;1.20;99.90;;;;;;5004613;28;20463;-66
2024/01/27 07:29:55;;;;;;;9.85;4.57;;;1.10;99.90;;;;;;5003863;28;20424;-66
2024/01/27 07:32:22;;;;;;;8.32;3.72;;;1.10;99.90;;;;;;5007213;28;20836;-66
2024/01/27 07:34:48;;;;;;;8.18;4.03;;;1.10;99.90;;;;;;5011914;28;20572;-67
2024/01/27 07:37:15;;;;;;;11.10;4.70;;;1.10;99.90;;;;;;5007895;28;20520;-67
2024/01/27 07:39:42;;;;;;;10.32;4.68;;;1.10;99.90;;;;;;5013948;28;20418;-67
2024/01/27 07:42:09;;;;;;;9.75;4.50;;;1.10;99.90;;;;;;5013910;28;20424;-67
2024/01/27 07:44:36;;;;;;;10.52;4.63;;;1.10;99.90;;;;;;5012406;28;20415;-68
2024/01/27 07:47:04;;;;;;;7.88;3.83;;;1.10;99.90;;;;;;5006321;28;20763;-66
2024/01/27 07:49:31;;;;;;;10.75;4.82;;;1.20;99.90;;;;;;5012700;28;20471;-66
2024/01/27 07:51:58;;;;;;;8.60;3.95;;;1.20;99.90;;;;;;5019100;28;20425;-68
2024/01/27 07:54:25;;;;;;;10.73;4.10;;;1.20;99.90;;;;;;5010462;28;20440;-66
2024/01/27 07:56:51;;;;;;;10.80;4.20;;;1.20;99.90;;;;;;5008879;28;20417;-67
2024/01/27 07:59:18;;;;;;;9.70;4.00;;;1.20;99.90;;;;;;5007820;28;20416;-69
2024/01/27 08:01:45;;;;;;;7.97;3.80;;;1.20;99.90;;;;;;5003548;28;20781;-68
2024/01/27 08:04:15;;;;;;;7.63;3.83;;;1.30;99.90;;;;;;5010112;28;20875;-68
2024/01/27 08:06:48;;;;;;;8.95;4.43;;;1.30;99.90;;;;;;5008276;28;20815;-68
2024/01/27 08:09:15;;;;;;;9.18;4.07;;;1.40;99.90;;;;;;5006250;28;20432;-69
2024/01/27 08:11:42;;;;;;;9.23;4.30;;;1.40;99.90;;;;;;5011815;28;20422;-69
2024/01/27 08:14:09;;;;;;;7.07;3.90;;;1.50;99.90;;;;;;5011997;28;20906;-68
2024/01/27 08:16:36;;;;;;;8.23;3.50;;;1.50;99.90;;;;;;5004341;28;20908;-69
2024/01/27 08:19:03;;;;;;;9.15;3.50;;;1.60;99.90;;;;;;5007297;28;20442;-68
2024/01/27 08:21:31;;;;;;;7.82;3.80;;;1.70;99.90;;;;;;5005486;28;20432;-69
2024/01/27 08:23:58;;;;;;;9.27;4.00;;;1.80;99.90;;;;;;5005387;28;20894;-68
2024/01/27 08:26:24;;;;;;;10.95;3.67;;;1.90;99.90;;;;;;5006288;28;20424;-68
2024/01/27 08:28:51;;;;;;;7.28;3.22;;;2.00;99.90;;;;;;5005798;28;20438;-68
2024/01/27 08:31:18;;;;;;;8.95;3.00;;;2.20;99.90;;;;;;5007328;28;20421;-68
2024/01/27 08:33:44;;;;;;;8.60;3.10;;;2.30;99.90;;;;;;5016788;28;20879;-68
2024/01/27 08:36:14;;;;;;;8.98;3.45;;;2.50;99.90;;;;;;5005372;28;20465;-68
2024/01/27 08:38:42;;;;;;;8.15;3.60;;;2.60;99.90;;;;;;5005481;28;20855;-68
2024/01/27 08:41:09;;;;;;;10.15;3.83;;;2.80;99.90;;;;;;5017206;28;20415;-67
2024/01/27 08:43:35;;;;;;;5.72;3.72;;;2.90;99.90;;;;;;5006838;28;20939;-68
2024/01/27 08:46:02;;;;;;;6.53;3.10;;;3.10;99.90;;;;;;5007451;28;20417;-68
2024/01/27 08:48:29;;;;;;;8.48;3.83;;;3.30;99.90;;;;;;5009270;28;20443;-69
2024/01/27 08:50:56;;;;;;;8.35;3.50;;;3.40;99.90;;;;;;5007858;28;20417;-69
2024/01/27 08:53:22;;;;;;;7.32;3.47;;;3.60;99.90;;;;;;5019183;28;20412;-68
2024/01/27 08:55:50;;;;;;;7.25;3.40;;;3.70;99.90;;;;;;5011638;28;20422;-67
2024/01/27 08:58:17;;;;;;;6.47;3.38;;;3.90;99.90;;;;;;5015818;28;20443;-68
2024/01/27 09:00:44;;;;;;;5.75;3.60;;;4.00;99.90;;;;;;5005920;28;20423;-67
2024/01/27 09:03:12;;;;;;;7.75;3.60;;;4.30;99.90;;;;;;5012949;28;20418;-67
2024/01/27 09:05:40;;;;;;;7.43;3.25;;;4.40;99.90;;;;;;5012249;28;20426;-68
2024/01/27 09:08:07;;;;;;;8.55;3.63;;;4.50;99.90;;;;;;5019111;28;20432;-67
2024/01/27 09:10:34;;;;;;;5.28;3.00;;;4.60;99.90;;;;;;5012315;28;20428;-67
2024/01/27 09:13:02;;;;;;;6.82;3.90;;;4.70;99.90;;;;;;5010414;28;20767;-67
2024/01/27 09:15:29;;;;;;;8.63;3.38;;;4.90;99.90;;;;;;5010835;28;20427;-68
2024/01/27 09:17:56;;;;;;;6.72;3.72;;;5.00;99.90;;;;;;5006080;28;20815;-67
2024/01/27 09:20:23;;;;;;;7.03;3.22;;;5.10;99.90;;;;;;5006963;28;20658;-66
2024/01/27 09:22:50;;;;;;;8.38;3.40;;;5.30;99.90;;;;;;5007314;28;20483;-66
2024/01/27 09:25:17;;;;;;;6.57;3.20;;;5.40;99.90;;;;;;5004550;28;20526;-66
2024/01/27 09:27:44;;;;;;;9.88;3.60;;;5.50;99.90;;;;;;5007178;28;20432;-67
2024/01/27 09:30:13;;;;;;;6.85;3.40;;;5.70;99.90;;;;;;5012387;28;20459;-69
2024/01/27 09:32:40;;;;;;;8.35;4.13;;;5.90;99.90;;;;;;5014911;28;20417;-67
2024/01/27 09:35:07;;;;;;;6.88;3.75;;;6.20;99.90;;;;;;5018407;28;20441;-71
2024/01/27 09:37:34;;;;;;;6.30;3.10;;;6.40;99.90;;;;;;5015439;28;20407;-67
2024/01/27 09:40:02;;;;;;;8.90;3.50;;;6.50;99.90;;;;;;5005921;28;20417;-70
2024/01/27 09:42:29;;;;;;;8.98;3.80;;;6.70;99.90;;;;;;5006633;28;20524;-67
2024/01/27 09:44:59;;;;;;;8.73;4.35;;;6.90;99.90;;;;;;5013919;28;20439;-66
2024/01/27 09:47:27;;;;;;;7.75;3.78;;;7.00;99.90;;;;;;5008960;28;20841;-67
2024/01/27 09:49:54;;;;;;;8.68;4.20;;;7.00;99.90;;;;;;5018651;28;20469;-66
2024/01/27 09:52:21;;;;;;;7.45;4.57;;;7.10;99.90;;;;;;5006830;28;20432;-67
2024/01/27 09:54:49;;;;;;;8.18;5.10;;;7.20;99.90;;;;;;5007077;28;20882;-66
2024/01/27 09:57:18;;;;;;;7.60;3.83;;;7.40;99.90;;;;;;5017394;28;20424;-66
2024/01/27 09:59:46;;;;;;;5.53;3.20;;;7.50;99.90;;;;;;5012741;28;20454;-66
2024/01/27 10:02:15;;;;;;;8.35;3.83;;;7.50;99.90;;;;;;5008181;28;20538;-66
2024/01/27 10:04:44;;;;;;;12.55;4.32;;;7.40;99.90;;;;;;5007122;28;20420;-66
2024/01/27 10:07:11;;;;;;;8.40;4.10;;;7.40;99.90;;;;;;5009976;28;20425;-66
2024/01/27 10:09:38;;;;;;;7.07;3.75;;;7.40;99.90;;;;;;5018461;28;20461;-66
2024/01/27 10:12:06;;;;;;;8.03;4.00;;;7.40;99.90;;;;;;5011124;28;20453;-66
2024/01/27 10:14:39;;;;;;;7.53;3.60;;;7.50;99.90;;;;;;5018202;28;20559;-66
2024/01/27 10:17:09;;;;;;;6.82;4.35;;;7.70;99.90;;;;;;5017263;28;20490;-66
2024/01/27 10:19:36;;;;;;;7.40;3.78;;;7.80;99.90;;;;;;5014843;28;20427;-67
2024/01/27 10:22:04;;;;;;;6.33;4.10;;;8.00;99.90;;;;;;5009865;28;20489;-66
2024/01/27 10:24:33;;;;;;;7.05;3.88;;;8.10;99.90;;;;;;5017258;28;20423;-67
2024/01/27 10:27:01;;;;;;;7.32;4.68;;;8.40;99.90;;;;;;5007303;28;20528;-73
2024/01/27 10:29:28;;;;;;;8.38;4.45;;;8.50;99.90;;;;;;5013082;28;20801;-73
2024/01/27 10:31:55;;;;;;;8.73;4.43;;;8.60;99.90;;;;;;5013709;28;20409;-67
2024/01/27 10:34:21;;;;;;;8.55;4.15;;;8.80;99.90;;;;;;5017128;28;20561;-70
2024/01/27 10:36:47;;;;;;;6.43;4.20;;;8.80;99.90;;;;;;5014657;28;20420;-67
2024/01/27 10:39:21;;;;;;;6.15;4.30;;;8.90;99.90;;;;;;5017802;28;20410;-66
2024/01/27 10:41:49;;;;;;;8.38;3.88;;;9.10;99.90;;;;;;5016699;28;20601;-67
2024/01/27 10:44:17;;;;;;;6.17;3.60;;;9.10;99.50;;;;;;5013086;28;20519;-67
2024/01/27 10:46:46;;;;;;;9.35;4.85;;;9.20;98.50;;;;;;5013125;28;20428;-66
2024/01/27 10:49:14;;;;;;;7.03;4.43;;;9.20;98.70;;;;;;5014480;28;20882;-67
2024/01/27 10:51:45;;;;;;;8.15;5.10;;;9.30;98.60;;;;;;5015169;28;20410;-67
2024/01/27 10:54:16;;;;;;;8.93;5.30;;;9.30;98.10;;;;;;5017909;28;20473;-66
2024/01/27 10:56:46;;;;;;;10.38;5.85;;;9.40;97.30;;;;;;5016218;28;20416;-67
2024/01/27 10:59:15;;;;;;;7.20;4.80;;;9.50;96.60;;;;;;5010098;28;20486;-66
2024/01/27 11:01:42;;;;;;;8.95;4.50;;;9.60;95.80;;;;;;5015557;28;20486;-67
2024/01/27 11:04:13;;;;;;;8.47;4.00;;;9.70;94.80;;;;;;5009567;28;20474;-67
2024/01/27 11:06:41;;;;;;;8.25;4.60;;;9.80;94.50;;;;;;5010774;28;20413;-67
2024/01/27 11:09:11;;;;;;;9.55;5.30;;;9.70;92.10;;;;;;5018415;28;20510;-67
2024/01/27 11:11:38;;;;;;;7.35;4.53;;;9.40;95.10;;;;;;5013297;28;20499;-67
2024/01/27 11:14:07;;;;;;;10.50;4.43;;;9.30;95.90;;;;;;5007299;28;20420;-66
2024/01/27 11:16:35;;;;;;;8.77;4.40;;;9.20;96.10;;;;;;5016365;28;20502;-67
2024/01/27 11:19:03;;;;;;;6.43;4.25;;;8.90;96.30;;;;;;5021504;28;20891;-67
2024/01/27 11:21:29;;;;;;;8.70;4.47;;;8.60;97.90;;;;;;5016713;28;20418;-67
2024/01/27 11:23:56;;;;;;;9.95;4.88;;;8.60;99.00;;;;;;5019101;28;20411;-67
2024/01/27 11:26:25;;;;;;;8.43;4.32;;;8.70;98.80;;;;;;5016413;28;20915;-67
2024/01/27 11:28:52;;;;;;;9.68;4.25;;;8.60;98.70;;;;;;5009116;28;20431;-67
2024/01/27 11:31:20;;;;;;;7.30;4.15;;;8.50;98.90;;;;;;5012550;28;20416;-67
2024/01/27 11:33:51;;;;;;;9.00;3.90;;;8.70;98.70;;;;;;5017556;28;20419;-67
2024/01/27 11:36:23;;;;;;;7.72;4.40;;;9.00;98.30;;;;;;5014428;28;20417;-67
2024/01/27 11:38:50;;;;;;;7.88;4.40;;;9.20;97.40;;;;;;5018604;28;20959;-67
2024/01/27 11:41:27;;;;;;;7.90;4.10;;;9.40;96.40;;;;;;5018902;28;20496;-67
2024/01/27 11:43:55;;;;;;;7.63;4.18;;;9.60;95.40;;;;;;5012728;28;20759;-67
2024/01/27 11:46:23;;;;;;;7.45;4.20;;;9.70;92.50;;;;;;5013052;28;20421;-67
2024/01/27 11:48:50;;;;;;;7.53;4.15;;;9.80;92.50;;;;;;5012546;28;20785;-67
2024/01/27 11:51:18;;;;;;;8.20;4.00;;;9.80;90.70;;;;;;5017525;28;20736;-67
2024/01/27 11:53:45;;;;;;;7.70;4.18;;;9.70;90.20;;;;;;5014346;28;20428;-67
2024/01/27 11:56:12;;;;;;;7.45;3.92;;;9.70;92.60;;;;;;5013914;28;20411;-66
2024/01/27 11:58:39;;;;;;;8.48;3.80;;;10.00;91.90;;;;;;5019487;28;20430;-67
2024/01/27 12:01:05;;;;;;;7.55;4.40;;;10.30;87.60;;;;;;5016907;28;20885;-66
2024/01/27 12:03:34;;;;;;;7.30;4.20;;;10.80;85.90;;;;;;5014114;28;20416;-66
2024/01/27 12:06:00;;;;;;;6.75;3.70;;;11.40;76.40;;;;;;5013373;28;20417;-66
2024/01/27 12:08:27;;;;;;;9.48;4.25;;;12.00;73.20;;;;;;5015760;28;20860;-66
2024/01/27 12:10:54;;;;;;;6.70;3.60;;;12.60;69.70;;;;;;5013922;28;20953;-66
2024/01/27 12:13:21;;;;;;;8.15;3.60;;;13.20;64.20;;;;;;5015084;28;20414;-67
2024/01/27 12:15:48;;;;;;;6.18;3.85;;;13.70;62.80;;;;;;5020863;28;20429;-67
2024/01/27 12:18:15;;;;;;;6.68;4.10;;;14.10;60.60;;;;;;5012780;28;20454;-66
2024/01/27 12:20:43;;;;;;;7.38;4.20;;;14.60;59.30;;;;;;5015131;28;20517;-67
2024/01/27 12:23:10;;;;;;;7.35;4.10;;;15.30;56.70;;;;;;5018931;28;20425;-66
2024/01/27 12:25:37;;;;;;;7.70;3.63;;;16.20;55.80;;;;;;5019291;28;20439;-67
2024/01/27 12:28:04;;;;;;;6.30;3.95;;;17.00;52.80;;;;;;5016693;28;20419;-67
2024/01/27 12:30:33;;;;;;;9.35;5.00;;;17.40;51.30;;;;;;5018844;28;20430;-67
2024/01/27 12:33:00;;;;;;;10.27;3.90;;;17.80;49.10;;;;;;5013806;28;20847;-67
2024/01/27 12:35:28;;;;;;;8.85;3.97;;;17.80;48.90;;;;;;5021328;28;20419;-67
2024/01/27 12:37:56;;;;;;;8.77;4.30;;;17.10;47.80;;;;;;5017002;28;20496;-67
2024/01/27 12:40:25;;;;;;;7.82;4.70;;;16.20;50.30;;;;;;5017719;28;20430;-67
2024/01/27 12:42:52;;;;;;;8.10;4.15;;;16.00;50.90;;;;;;5018193;28;20437;-67
2024/01/27 12:45:19;;;;;;;8.77;4.40;;;15.70;49.80;;;;;;5014694;28;20859;-67
2024/01/27 12:47:46;;;;;;;9.60;4.15;;;15.20;50.10;;;;;;5014831;28;20506;-67
2024/01/27 12:50:13;;;;;;;9.10;4.40;;;14.60;52.00;;;;;;5016191;28;20658;-67
2024/01/27 12:52:39;;;;;;;7.03;3.75;;;14.20;53.60;;;;;;5018204;28;20579;-67
2024/01/27 12:55:08;;;;;;;7.82;4.22;;;13.90;55.00;;;;;;5014869;28;20416;-67
2024/01/27 12:57:35;;;;;;;7.90;3.80;;;13.80;55.60;;;;;;5017676;28;20484;-67
2024/01/27 13:00:09;;;;;;;7.43;3.90;;;13.90;55.10;;;;;;5014820;28;20941;-67
2024/01/27 13:02:36;;;;;;;10.60;4.10;;;13.90;55.10;;;;;;5017247;28;20427;-67
2024/01/27 13:05:03;;;;;;;8.20;3.87;;;13.70;55.10;;;;;;5012008;28;20985;-67
2024/01/27 13:07:30;;;;;;;6.07;3.80;;;13.60;55.20;;;;;;5014169;28;20435;-67
2024/01/27 13:09:56;;;;;;;7.53;3.80;;;13.40;55.60;;;;;;5015490;28;20490;-68
2024/01/27 13:12:25;;;;;;;6.63;3.20;;;13.40;56.00;;;;;;5021452;28;20447;-67
2024/01/27 13:14:51;;;;;;;8.95;3.67;;;13.40;55.60;;;;;;5017297;28;20494;-67
2024/01/27 13:17:19;;;;;;;8.90;3.95;;;13.50;56.30;;;;;;5014575;28;20455;-67
2024/01/27 13:19:46;;;;;;;7.40;3.70;;;13.60;55.70;;;;;;5011190;28;20889;-66
2024/01/27 13:22:13;;;;;;;7.07;3.20;;;13.80;55.60;;;;;;5016550;28;20430;-66
2024/01/27 13:24:40;;;;;;;9.18;3.67;;;14.00;54.60;;;;;;5019209;28;20410;-66
2024/01/27 13:27:08;;;;;;;8.70;3.60;;;14.20;53.40;;;;;;5016908;28;20793;-65
2024/01/27 13:29:36;;;;;;;6.40;3.20;;;14.30;53.20;;;;;;5015521;28;20441;-65
2024/01/27 13:32:02;;;;;;;6.88;3.47;;;14.40;53.10;;;;;;5013540;28;20411;-67
2024/01/27 13:34:30;;;;;;;7.72;3.55;;;14.40;52.30;;;;;;5018115;28;20982;-66
2024/01/27 13:36:58;;;;;;;6.97;3.43;;;14.20;52.00;;;;;;5019975;28;20477;-66
2024/01/27 13:39:25;;;;;;;8.68;3.60;;;14.10;52.20;;;;;;5013037;28;20437;-67
2024/01/27 13:41:52;;;;;;;5.87;3.17;;;13.80;51.90;;;;;;5020157;28;20449;-67
2024/01/27 13:44:18;;;;;;;7.55;3.03;;;13.60;52.70;;;;;;5008689;28;20790;-67
2024/01/27 13:46:47;;;;;;;8.60;3.20;;;13.50;53.30;;;;;;5017664;28;20512;-67
2024/01/27 13:49:14;;;;;;;7.95;2.92;;;13.40;53.00;;;;;;5020885;28;20505;-67
2024/01/27 13:51:41;;;;;;;7.45;3.28;;;13.20;53.40;;;;;;5015832;28;20769;-67
2024/01/27 13:54:09;;;;;;;6.35;3.00;;;13.10;53.80;;;;;;5010283;28;20434;-67
2024/01/27 13:56:36;;;;;;;7.78;3.20;;;13.00;53.90;;;;;;5013674;28;20599;-67
2024/01/27 13:59:06;;;;;;;6.70;3.10;;;13.00;54.20;;;;;;5019646;28;20427;-67
2024/01/27 14:01:33;;;;;;;8.20;3.22;;;12.90;54.10;;;;;;5018273;28;20419;-68
2024/01/27 14:04:01;;;;;;;7.13;3.10;;;12.70;54.90;;;;;;5010992;28;20421;-66
2024/01/27 14:06:28;;;;;;;6.40;3.10;;;12.60;54.70;;;;;;5011357;28;20417;-66
2024/01/27 14:08:55;;;;;;;6.30;2.67;;;12.50;55.20;;;;;;5011474;28;20535;-66
2024/01/27 14:11:22;;;;;;;7.35;3.08;;;12.30;55.10;;;;;;5039913;23;20444;-74
2024/01/27 14:13:49;;;;;;;8.35;3.58;;;12.20;55.80;;;;;;5023763;28;20422;-74
2024/01/27 14:16:16;;;;;;;7.50;3.30;;;12.10;56.00;;;;;;5030540;28;20415;-74
2024/01/27 14:18:43;;;;;;;9.55;3.90;;;12.00;56.30;;;;;;5032314;28;20422;-73
2024/01/27 14:21:11;;;;;;;6.43;3.30;;;11.90;56.90;;;;;;5023967;28;20467;-76
2024/01/27 14:23:38;;;;;;;7.45;3.00;;;11.90;56.50;;;;;;5012696;28;20428;-75
2024/01/27 14:26:07;;;;;;;5.90;2.70;;;11.80;56.50;;;;;;5009475;28;20496;-74
2024/01/27 14:28:35;;;;;;;5.15;2.80;;;11.70;57.80;;;;;;5006225;28;20421;-75
2024/01/27 14:31:02;;;;;;;8.00;3.03;;;11.60;57.70;;;;;;5008876;28;20522;-73
2024/01/27 14:33:28;;;;;;;5.90;3.00;;;11.60;57.60;;;;;;5007783;28;20432;-74
2024/01/27 14:35:55;;;;;;;7.03;2.95;;;11.60;57.10;;;;;;5009471;28;20496;-74
2024/01/27 14:38:23;;;;;;;5.95;2.83;;;11.60;57.40;;;;;;5009783;28;20416;-74
2024/01/27 14:40:50;;;;;;;5.80;2.90;;;11.50;57.90;;;;;;5009845;28;20439;-73
2024/01/27 14:43:18;;;;;;;6.53;2.90;;;11.50;57.50;;;;;;5010065;28;20420;-73
2024/01/27 14:45:45;;;;;;;8.30;3.60;;;11.30;57.60;;;;;;5009864;28;20499;-74
2024/01/27 14:48:12;;;;;;;6.57;3.00;;;11.10;58.50;;;;;;5009583;28;20425;-74
2024/01/27 14:50:39;;;;;;;9.05;3.30;;;11.00;59.10;;;;;;5007350;28;20873;-73
2024/01/27 14:53:06;;;;;;;6.18;3.17;;;10.90;58.60;;;;;;5005466;28;20412;-73
2024/01/27 14:55:34;;;;;;;6.78;3.03;;;10.80;59.50;;;;;;5009486;28;20423;-75
2024/01/27 14:58:03;;;;;;;5.38;2.72;;;10.80;59.30;;;;;;5009358;28;20432;-74
2024/01/27 15:00:30;;;;;;;5.90;2.80;;;10.70;59.60;;;;;;5009073;28;20428;-74
2024/01/27 15:02:57;;;;;;;4.97;2.70;;;10.50;59.50;;;;;;5008305;28;20430;-73
2024/01/27 15:05:23;;;;;;;9.07;2.70;;;10.30;59.20;;;;;;5008775;28;20427;-73
2024/01/27 15:07:50;;;;;;;9.02;2.72;;;10.10;59.50;;;;;;5009124;28;20424;-76
2024/01/27 15:10:17;;;;;;;6.75;2.42;;;10.00;60.60;;;;;;5007574;28;20433;-74
2024/01/27 15:12:45;;;;;;;8.77;2.92;;;9.90;60.10;;;;;;5009043;28;20473;-74
2024/01/27 15:15:12;;;;;;;5.07;2.50;;;9.80;60.60;;;;;;5008592;28;20427;-73
2024/01/27 15:17:39;;;;;;;5.72;2.35;;;9.70;61.00;;;;;;5007911;28;20417;-73
2024/01/27 15:20:07;;;;;;;7.07;2.80;;;9.70;61.10;;;;;;5008672;28;20467;-74
2024/01/27 15:22:34;;;;;;;5.88;2.60;;;9.60;61.60;;;;;;5008531;28;20427;-74
2024/01/27 15:25:01;;;;;;;5.85;2.40;;;9.60;61.50;;;;;;5007784;28;20421;-74
2024/01/27 15:27:27;;;;;;;7.80;2.80;;;9.50;61.50;;;;;;5008200;28;20426;-73
2024/01/27 15:29:55;;;;;;;11.75;3.10;;;9.40;61.80;;;;;;5006711;28;20440;-73
2024/01/27 15:32:23;;;;;;;7.78;2.67;;;9.40;62.10;;;;;;5008748;28;20419;-73
2024/01/27 15:34:50;;;;;;;6.85;2.58;;;9.30;62.00;;;;;;5008218;28;20420;-73
2024/01/27 15:37:17;;;;;;;6.47;3.03;;;9.20;61.80;;;;;;5008652;28;20794;-74
2024/01/27 15:39:44;;;;;;;8.05;2.85;;;9.10;62.80;;;;;;5008875;28;20424;-73
2024/01/27 15:42:10;;;;;;;5.85;2.50;;;8.90;63.20;;;;;;5008534;28;20929;-77
2024/01/27 15:44:37;;;;;;;8.73;3.00;;;8.90;63.30;;;;;;5007994;28;20433;-73
2024/01/27 15:47:07;;;;;;;10.00;3.40;;;8.80;62.80;;;;;;5006579;28;20871;-73
2024/01/27 15:49:34;;;;;;;7.55;2.50;;;8.60;64.10;;;;;;5007786;28;20423;-73
2024/01/27 15:52:01;;;;;;;5.78;2.63;;;8.50;64.10;;;;;;5008312;28;20499;-73
2024/01/27 15:54:28;;;;;;;6.57;2.35;;;8.50;64.90;;;;;;5004485;28;20485;-74
2024/01/27 15:56:55;;;;;;;6.72;2.53;;;8.40;65.70;;;;;;5008863;28;20496;-72
2024/01/27 15:59:21;;;;;;;7.30;2.60;;;8.30;67.40;;;;;;5005581;28;20510;-74
2024/01/27 16:01:48;;;;;;;5.25;2.60;;;8.20;68.40;;;;;;5008031;28;20409;-74
2024/01/27 16:04:16;;;;;;;6.35;2.47;;;8.10;71.10;;;;;;5005004;28;20470;-74
2024/01/27 16:06:43;;;;;;;8.75;2.95;;;8.10;73.90;;;;;;5007890;28;20809;-74
2024/01/27 16:09:10;;;;;;;5.53;2.40;;;8.00;73.90;;;;;;5005357;28;20938;-73
2024/01/27 16:11:37;;;;;;;7.45;2.78;;;7.90;74.20;;;;;;5007876;28;20526;-71
2024/01/27 16:14:04;;;;;;;7.25;2.75;;;7.80;77.90;;;;;;5007561;28;20447;-72
2024/01/27 16:16:30;;;;;;;6.20;2.50;;;7.80;75.00;;;;;;5008404;28;20427;-73
2024/01/27 16:18:57;;;;;;;7.47;2.88;;;7.70;74.90;;;;;;5007636;28;20420;-74
2024/01/27 16:21:25;;;;;;;8.65;3.20;;;7.60;76.40;;;;;;5008407;28;20413;-73
2024/01/27 16:23:52;;;;;;;6.78;3.83;;;7.60;81.00;;;;;;5008024;28;20847;-72
2024/01/27 16:26:19;;;;;;;7.20;4.32;;;7.50;82.60;;;;;;4999705;28;20424;-71
2024/01/27 16:28:47;;;;;;;7.75;4.05;;;7.40;81.90;;;;;;5007519;28;20416;-71
2024/01/27 16:31:13;;;;;;;9.60;4.50;;;7.40;83.20;;;;;;5007622;28;20519;-71
2024/01/27 16:33:40;;;;;;;9.27;4.53;;;7.30;85.40;;;;;;5007522;28;20413;-72
2024/01/27 16:36:08;;;;;;;7.70;3.58;;;7.30;87.10;;;;;;5007309;28;20417;-72
2024/01/27 16:38:36;;;;;;;8.85;4.10;;;7.20;91.20;;;;;;5007936;28;21022;-71
2024/01/27 16:41:03;;;;;;;8.02;4.13;;;7.20;92.30;;;;;;5007360;28;20890;-72
2024/01/27 16:43:29;;;;;;;6.63;3.90;;;7.10;93.60;;;;;;5007965;28;20424;-73
2024/01/27 16:45:56;;;;;;;8.40;4.88;;;7.00;93.90;;;;;;5007496;28;20423;-72
2024/01/27 16:48:23;;;;;;;8.75;4.03;;;7.00;94.30;;;;;;5007857;28;20787;-72
2024/01/27 16:50:50;;;;;;;8.57;3.33;;;6.90;95.50;;;;;;5005634;28;20881;-71
2024/01/27 16:53:17;;;;;;;7.33;3.80;;;6.90;94.20;;;;;;5007236;28;20424;-72
2024/01/27 16:55:45;;;;;;;8.05;4.07;;;6.90;94.10;;;;;;5007489;28;20424;-72
2024/01/27 16:58:12;;;;;;;9.35;4.60;;;6.80;95.20;;;;;;5007035;28;20425;-72
2024/01/27 17:00:39;;;;;;;8.63;3.38;;;6.80;96.70;;;;;;5008734;28;20494;-72
2024/01/27 17:03:06;;;;;;;8.90;4.00;;;6.70;95.70;;;;;;5010420;28;20413;-72
2024/01/27 17:05:33;;;;;;;8.63;4.13;;;6.70;95.90;;;;;;5007810;28;21010;-72
2024/01/27 17:08:00;;;;;;;11.38;4.28;;;6.70;95.40;;;;;;5009110;28;20420;-73
2024/01/27 17:10:27;;;;;;;5.82;2.88;;;6.70;95.40;;;;;;5010978;28;20468;-72
2024/01/27 17:12:55;;;;;;;7.57;3.63;;;6.60;95.80;;;;;;5010815;28;20412;-72
2024/01/27 17:15:22;;;;;;;6.28;3.65;;;6.60;96.60;;;;;;5004145;28;20490;-73
2024/01/27 17:17:48;;;;;;;7.30;3.60;;;6.50;98.10;;;;;;5010830;28;20893;-72
2024/01/27 17:20:16;;;;;;;7.10;4.13;;;6.50;99.10;;;;;;5010615;28;20409;-72
2024/01/27 17:22:42;;;;;;;8.00;3.97;;;6.40;99.00;;;;;;5010741;28;20981;-73
2024/01/27 17:25:09;;;;;;;9.75;5.55;;;6.40;97.50;;;;;;5004983;28;20448;-73
2024/01/27 17:27:36;;;;;;;8.90;5.25;;;6.40;97.70;;;;;;5008871;28;20412;-73
2024/01/27 17:30:08;;;;;;;10.10;4.70;;;6.40;97.90;;;;;;5006414;28;20434;-72
2024/01/27 17:32:35;;;;;;;9.15;4.80;;;6.40;97.90;;;;;;5008068;28;20455;-72
2024/01/27 17:35:04;;;;;;;6.07;3.40;;;6.30;98.10;;;;;;5007238;28;20448;-72
2024/01/27 17:37:33;;;;;;;8.23;3.30;;;6.30;98.10;;;;;;5010377;28;20425;-72
2024/01/27 17:40:02;;;;;;;9.40;3.50;;;6.30;98.30;;;;;;5010541;28;20512;-71
2024/01/27 17:42:29;;;;;;;7.57;4.20;;;6.30;98.60;;;;;;5009934;28;20523;-72
2024/01/27 17:44:55;;;;;;;8.70;4.45;;;6.20;98.50;;;;;;5009765;28;20968;-71
2024/01/27 17:47:23;;;;;;;9.70;3.53;;;6.20;99.00;;;;;;5002528;28;20432;-71
2024/01/27 17:49:50;;;;;;;8.50;4.20;;;6.20;98.70;;;;;;5004380;28;20433;-70
2024/01/27 17:52:17;;;;;;;8.82;3.83;;;6.20;98.70;;;;;;5009897;28;20432;-73
2024/01/27 17:54:43;;;;;;;10.35;3.80;;;6.10;99.50;;;;;;5009824;28;20863;-70
2024/01/27 17:57:10;;;;;;;8.38;4.05;;;6.10;98.60;;;;;;5002497;28;20422;-72
2024/01/27 17:59:39;;;;;;;8.77;3.67;;;6.10;98.90;;;;;;5009944;28;20427;-73
2024/01/27 18:02:06;;;;;;;6.40;3.00;;;6.10;98.30;;;;;;5009901;28;20922;-72
2024/01/27 18:04:34;;;;;;;8.10;3.90;;;6.10;98.10;;;;;;5008613;28;20783;-70
2024/01/27 18:07:01;;;;;;;7.60;4.20;;;6.10;98.70;;;;;;5008917;28;21030;-71
2024/01/27 18:09:28;;;;;;;9.20;4.82;;;6.10;98.90;;;;;;5009099;28;20433;-72
2024/01/27 18:11:55;;;;;;;8.18;5.40;;;6.00;99.10;;;;;;5009265;28;20429;-71
2024/01/27 18:14:22;;;;;;;9.07;5.10;;;6.00;99.90;;;;;;5009358;28;20448;-71
2024/01/27 18:16:49;;;;;;;9.75;5.20;;;5.90;99.90;;;;;;5010191;28;20783;-71
2024/01/27 18:19:17;;;;;;;8.75;6.25;;;5.90;99.90;;;;;;5009203;28;20844;-71
2024/01/27 18:21:46;;;;;;;13.10;7.33;;;5.80;99.90;;;;;;5009371;28;20910;-72